• Join FlightAware (Why Join?)
  • Login
  • US Flag 
02:23AM EDT


 

Airport Tracker/Info


-or-


 

Live Flight TrackerFlight Track Log ✈ SWA1725 ✈ 12-Apr-2013 ✈ KMDW - KBHM

Flight Track Log - Related Links

Times and Time Zones

All times are in EDT time to prevent confusion due to time zone crossing. See the SWA1725 flight status page for this flight to view local times or setup timezone preferences in your user account.

Time Position Orientation Groundspeed Altitude Reporting Facility
EDT Latitude Longitude Course Direction KTS MPH feet Rate Location/Type
09:57PM 41.7500 -87.7833 185° South 179 206 3,100  Level Chicago TRACON
09:59PM 41.6042 -87.8214 191° South 257 296 9,200 3,120 Climbing Chicago Center
10:00PM 41.5044 -87.8528 193° South 315 362 13,400 3,840 Climbing Chicago Center
10:02PM 41.4111 -87.8792 192° South 338 389 17,200 3,600 Climbing Chicago Center
10:03PM 41.2651 -87.8798 185° South  Level FlightAware Approximate
10:03PM 41.3083 -87.8875 183° South 363 418 20,800  Level Chicago Center
10:04PM 41.2019 -87.8919 182° South 379 436 23,700 2,580 Climbing Chicago Center
10:05PM 41.0889 -87.8878 178° South 403 464 26,200 2,340 Climbing Chicago Center
10:06PM 40.9731 -87.8842 179° South 413 475 28,600 2,160 Climbing Chicago Center
10:07PM 40.8539 -87.8817 179° South 427 491 30,700 2,220 Climbing Chicago Center
10:08PM 40.7347 -87.8778 179° South 429 494 33,200 2,340 Climbing Chicago Center
10:09PM 40.6192 -87.8736 178° South 417 480 35,600 1,500 Climbing Chicago Center
10:10PM 40.5036 -87.8703 179° South 417 480 36,300 1,200 Climbing Chicago Center
10:11PM 40.3572 -87.8664 179° South 439 505 38,100 1,680 Climbing Chicago Center
10:12PM 40.2400 -87.8608 178° South 429 494 39,700 1,260 Climbing Indianapolis Center
10:13PM 40.1211 -87.8450 174° South 430 495 40,700 600 Climbing Indianapolis Center
10:14PM 40.0028 -87.8217 171° South 430 495 41,000 120 Climbing Indianapolis Center
10:15PM 39.8858 -87.7975 171° South 428 493 41,000  Level Indianapolis Center
10:16PM 39.7697 -87.7756 172° South 424 488 41,000  Level Indianapolis Center
10:17PM 39.6528 -87.7544 172° South 422 486 41,000  Level Indianapolis Center
10:18PM 39.5369 -87.7347 173° South 419 482 41,000  Level Indianapolis Center
10:19PM 39.4217 -87.7133 172° South 417 480 41,000  Level Indianapolis Center
10:20PM 39.3056 -87.6939 173° South 417 480 41,000  Level Indianapolis Center
10:21PM 39.1906 -87.6728 172° South 417 480 41,000  Level Indianapolis Center
10:22PM 39.0744 -87.6525 172° South 419 482 41,000  Level Indianapolis Center
10:23PM 38.9569 -87.6322 172° South 424 488 41,000  Level Indianapolis Center
10:24PM 38.8403 -87.6117 172° South 423 487 41,000  Level Indianapolis Center
10:25PM 38.7225 -87.5922 173° South 425 489 41,000  Level Indianapolis Center
10:26PM 38.6044 -87.5714 172° South 427 491 41,000  Level Indianapolis Center
10:27PM 38.4858 -87.5497 172° South 429 494 41,000  Level Indianapolis Center
10:28PM 38.3683 -87.5306 173° South 428 493 41,000  Level Indianapolis Center
10:29PM 38.2278 -87.5067 172° South 429 494 41,000  Level Indianapolis Center
10:30PM 38.1092 -87.4867 172° South 431 496 41,000  Level Indianapolis Center
10:31PM 37.9894 -87.4647 172° South 434 499 41,000  Level Indianapolis Center
10:32PM 37.8708 -87.4447 172° South 432 497 41,000  Level Indianapolis Center
10:33PM 37.7614 -87.4275 173° South 431 496 41,000  Level Indianapolis Center
10:34PM 37.6219 -87.4044 173° South 429 494 41,000  Level Indianapolis Center
10:35PM 37.5019 -87.3833 172° South 430 495 41,000  Level Indianapolis Center
10:36PM 37.3808 -87.3631 172° South 434 499 41,000  Level Indianapolis Center
10:37PM 37.2572 -87.3431 173° South 435 501 41,000  Level Indianapolis Center
10:38PM 37.1392 -87.3219 172° South 435 501 41,000  Level Indianapolis Center
10:39PM 37.0189 -87.2900 168° South 442 509 41,000 -480 Level Indianapolis Center
10:40PM 36.8950 -87.2517 166° South 432 497 40,100 -900 Descending Memphis Center
10:41PM 36.7753 -87.2175 167° South 437 503 39,200 -600 Descending Memphis Center
10:42PM 36.6600 -87.1833 167° South 431 496 39,000 -120 Descending Memphis Center
10:43PM 36.5444 -87.1489 167° South 431 496 39,000 -120 Level Memphis Center
10:44PM 36.4267 -87.1150 167° South 431 496 38,800 -600 Descending Memphis Center
10:45PM 36.3092 -87.0836 168° South 431 496 37,800 -900 Descending Memphis Center
10:46PM 36.1936 -87.0472 166° South 431 496 37,000 -420 Descending Memphis Center
10:47PM 36.0883 -87.0128 165° South 413 475 37,000 -240 Level Memphis Center
10:48PM 35.9792 -86.9814 167° South 408 470 36,600 -720 Descending Memphis Center
10:49PM 35.8678 -86.9475 166° South 403 464 35,600 -600 Descending Memphis Center
10:51PM 35.6747 -86.8892 166° South 419 482 35,000 -240 Descending Atlanta Center
10:52PM 35.5631 -86.8572 167° South 424 488 35,000  Level Atlanta Center
10:53PM 35.4489 -86.8228 166° South 424 488 35,000  Level Atlanta Center
10:54PM 35.3286 -86.7881 167° South 418 481 35,000  Level Atlanta Center
10:55PM 35.2169 -86.7539 166° South 418 481 35,000 -960 Level Atlanta Center
10:56PM 35.1442 -86.7333 167° South 415 478 33,400 -2,700 Descending Memphis Center
10:57PM 35.0286 -86.7003 167° South 415 478 30,400 -3,060 Descending Memphis Center
10:58PM 34.9128 -86.6650 166° South 421 484 27,300 -2,940 Descending Memphis Center
10:59PM 34.8011 -86.6344 167° South 422 486 24,600 -2,340 Descending Memphis Center
11:00PM 34.6881 -86.6142 172° South 416 479 22,700 -1,440 Descending Memphis Center
11:01PM 34.5819 -86.6289 187° South 405 466 21,800 -1,020 Descending Memphis Center
11:02PM 34.4739 -86.6411 185° South 399 459 20,700 -1,080 Descending Memphis Center
11:03PM 34.3575 -86.6564 186° South 394 453 19,700 -1,680 Descending Memphis Center
11:05PM 34.1708 -86.6775 185° South 378 435 15,900 -2,160 Descending Atlanta Center
11:06PM 34.0706 -86.6894 186° South 372 428 13,400 -2,580 Descending Atlanta Center
11:07PM 33.9586 -86.7411 201° Southwest 338 389 10,500 -1,860 Descending Atlanta Center
11:08PM 33.8722 -86.7783 200° South 293 337 9,400 -1,320 Descending Atlanta Center
11:09PM 33.8178 -86.7967 196° South 323 372 8,100 -1,980 Descending Atlanta Center
11:09PM 33.7881 -86.8108 202° Southwest 298 343 7,400 -1,920 Descending Atlanta Center
11:10PM 33.7417 -86.8292 198° South 309 356 6,200 -1,740 Descending Atlanta Center
11:10PM 33.7161 -86.8558 221° Southwest 296 341 5,700 -1,500 Descending Atlanta Center
11:11PM 33.6758 -86.8844 211° Southwest 295 339 4,700 -1,560 Descending Atlanta Center
11:11PM 33.6461 -86.9108 216° Southwest 256 295 4,000 -600 Descending Atlanta Center
11:12PM 33.6206 -86.9300 212° Southwest 270 311 4,100  Climbing Atlanta Center
11:12PM 33.5950 -86.9542 218° Southwest 211 243 4,000 -300 Descending Atlanta Center